sensor_id;sensor_type;location;lat;lon;timestamp;pressure;altitude;pressure_sealevel;temperature;humidity
10940;BME280;5522;42.696;23.494;2023-03-15T00:00:19;53638.72;;;-139.68;53.51
10940;BME280;5522;42.696;23.494;2023-03-15T00:02:46;53642.72;;;-139.68;53.32
10940;BME280;5522;42.696;23.494;2023-03-15T00:05:13;53668.88;;;-139.68;53.42
10940;BME280;5522;42.696;23.494;2023-03-15T00:07:39;53630.66;;;-139.68;53.68
10940;BME280;5522;42.696;23.494;2023-03-15T00:10:07;53646.75;;;-139.68;54.87
10940;BME280;5522;42.696;23.494;2023-03-15T00:12:34;53646.75;;;-139.68;55.26
10940;BME280;5522;42.696;23.494;2023-03-15T00:15:01;53648.75;;;-139.68;54.77
10940;BME280;5522;42.696;23.494;2023-03-15T00:17:29;53658.81;;;-139.68;54.79
10940;BME280;5522;42.696;23.494;2023-03-15T00:19:59;53624.63;;;-139.68;54.69
10940;BME280;5522;42.696;23.494;2023-03-15T00:22:26;53638.72;;;-139.68;53.43
10940;BME280;5522;42.696;23.494;2023-03-15T00:24:53;53652.78;;;-139.68;52.48
10940;BME280;5522;42.696;23.494;2023-03-15T00:27:19;53638.72;;;-139.68;51.52
10940;BME280;5522;42.696;23.494;2023-03-15T00:29:46;53626.66;;;-139.68;50.16
10940;BME280;5522;42.696;23.494;2023-03-15T00:32:13;53642.72;;;-139.68;49.17
10940;BME280;5522;42.696;23.494;2023-03-15T00:34:41;53614.59;;;-139.68;48.55
10940;BME280;5522;42.696;23.494;2023-03-15T00:37:13;53664.84;;;-139.68;48.50
10940;BME280;5522;42.696;23.494;2023-03-15T00:39:41;53652.78;;;-139.68;48.34
10940;BME280;5522;42.696;23.494;2023-03-15T00:42:10;53646.75;;;-139.68;48.32
10940;BME280;5522;42.696;23.494;2023-03-15T00:44:40;53590.47;;;-139.68;48.21
10940;BME280;5522;42.696;23.494;2023-03-15T00:47:07;53660.81;;;-139.68;48.04
10940;BME280;5522;42.696;23.494;2023-03-15T00:49:34;53658.81;;;-139.68;48.05
10940;BME280;5522;42.696;23.494;2023-03-15T00:52:02;53666.84;;;-139.68;48.05
10940;BME280;5522;42.696;23.494;2023-03-15T00:54:29;53626.66;;;-139.68;47.70
10940;BME280;5522;42.696;23.494;2023-03-15T00:56:57;53622.63;;;-139.68;47.85
10940;BME280;5522;42.696;23.494;2023-03-15T00:59:25;53670.88;;;-139.68;47.95
10940;BME280;5522;42.696;23.494;2023-03-15T01:07:05;53638.72;;;-139.68;52.04
10940;BME280;5522;42.696;23.494;2023-03-15T01:09:32;53662.84;;;-139.68;52.40
10940;BME280;5522;42.696;23.494;2023-03-15T01:11:59;53610.56;;;-139.68;57.90
10940;BME280;5522;42.696;23.494;2023-03-15T01:14:25;53620.63;;;-139.68;60.13
10940;BME280;5522;42.696;23.494;2023-03-15T01:16:52;53642.72;;;-139.68;64.48
10940;BME280;5522;42.696;23.494;2023-03-15T01:19:19;53626.66;;;-139.68;65.46
10940;BME280;5522;42.696;23.494;2023-03-15T01:21:46;53650.78;;;-139.68;68.31
10940;BME280;5522;42.696;23.494;2023-03-15T01:24:14;53598.50;;;-139.68;73.78
10940;BME280;5522;42.696;23.494;2023-03-15T01:26:41;53612.56;;;-139.68;72.74
10940;BME280;5522;42.696;23.494;2023-03-15T01:29:07;53592.47;;;-139.68;66.82
10940;BME280;5522;42.696;23.494;2023-03-15T01:31:34;53622.63;;;-139.68;68.70
10940;BME280;5522;42.696;23.494;2023-03-15T01:34:01;53602.53;;;-139.68;72.64
10940;BME280;5522;42.696;23.494;2023-03-15T01:36:28;53642.72;;;-139.68;68.65
10940;BME280;5522;42.696;23.494;2023-03-15T01:38:55;53610.56;;;-139.68;65.74
10940;BME280;5522;42.696;23.494;2023-03-15T01:41:23;53576.41;;;-139.68;64.34
10940;BME280;5522;42.696;23.494;2023-03-15T01:43:51;53612.56;;;-139.68;64.10
10940;BME280;5522;42.696;23.494;2023-03-15T01:46:24;53614.59;;;-139.68;68.54
10940;BME280;5522;42.696;23.494;2023-03-15T01:48:56;53624.63;;;-139.68;69.18
10940;BME280;5522;42.696;23.494;2023-03-15T01:51:31;53626.66;;;-139.68;76.24
10940;BME280;5522;42.696;23.494;2023-03-15T01:54:02;53650.78;;;-139.68;83.33
10940;BME280;5522;42.696;23.494;2023-03-15T01:56:32;53568.34;;;-139.68;82.45
10940;BME280;5522;42.696;23.494;2023-03-15T01:59:02;53628.66;;;-139.68;81.13
10940;BME280;5522;42.696;23.494;2023-03-15T02:01:31;53646.75;;;-139.68;79.03
10940;BME280;5522;42.696;23.494;2023-03-15T02:04:05;53614.59;;;-139.68;70.18
10940;BME280;5522;42.696;23.494;2023-03-15T02:06:34;53590.47;;;-139.68;67.46
10940;BME280;5522;42.696;23.494;2023-03-15T02:09:03;53638.72;;;-139.68;64.38
10940;BME280;5522;42.696;23.494;2023-03-15T02:11:33;53582.44;;;-139.68;64.77
10940;BME280;5522;42.696;23.494;2023-03-15T02:14:02;53622.63;;;-139.68;68.09
10940;BME280;5522;42.696;23.494;2023-03-15T02:16:29;53618.63;;;-139.68;70.29
10940;BME280;5522;42.696;23.494;2023-03-15T02:18:56;53598.50;;;-139.68;69.12
10940;BME280;5522;42.696;23.494;2023-03-15T02:21:41;53598.50;;;-139.68;70.05
10940;BME280;5522;42.696;23.494;2023-03-15T02:24:20;53568.34;;;-139.68;74.02
10940;BME280;5522;42.696;23.494;2023-03-15T02:26:53;53594.50;;;-139.68;70.89
10940;BME280;5522;42.696;23.494;2023-03-15T02:29:23;53644.75;;;-139.68;66.29
10940;BME280;5522;42.696;23.494;2023-03-15T02:31:52;53652.78;;;-139.68;65.88
10940;BME280;5522;42.696;23.494;2023-03-15T02:34:20;53608.56;;;-139.68;65.82
10940;BME280;5522;42.696;23.494;2023-03-15T02:36:50;53644.75;;;-139.68;67.11
10940;BME280;5522;42.696;23.494;2023-03-15T02:39:18;53604.53;;;-139.68;67.08
10940;BME280;5522;42.696;23.494;2023-03-15T02:41:48;53622.63;;;-139.68;65.26
10940;BME280;5522;42.696;23.494;2023-03-15T02:44:19;53610.56;;;-139.68;67.25
10940;BME280;5522;42.696;23.494;2023-03-15T02:46:50;53656.81;;;-139.68;68.01
10940;BME280;5522;42.696;23.494;2023-03-15T02:49:21;53610.56;;;-139.68;68.35
10940;BME280;5522;42.696;23.494;2023-03-15T02:51:49;53638.72;;;-139.68;67.60
10940;BME280;5522;42.696;23.494;2023-03-15T02:54:16;53622.63;;;-139.68;65.98
10940;BME280;5522;42.696;23.494;2023-03-15T02:56:42;53628.66;;;-139.68;66.09
10940;BME280;5522;42.696;23.494;2023-03-15T02:59:09;53614.59;;;-139.68;64.66
10940;BME280;5522;42.696;23.494;2023-03-15T03:01:37;53646.75;;;-139.68;64.58
10940;BME280;5522;42.696;23.494;2023-03-15T03:04:05;53646.75;;;-139.68;63.87
10940;BME280;5522;42.696;23.494;2023-03-15T03:06:32;53622.63;;;-139.68;64.63
10940;BME280;5522;42.696;23.494;2023-03-15T03:08:59;53608.56;;;-139.68;65.10
10940;BME280;5522;42.696;23.494;2023-03-15T03:11:29;53626.66;;;-139.68;65.30
10940;BME280;5522;42.696;23.494;2023-03-15T03:13:55;53650.78;;;-139.68;65.69
10940;BME280;5522;42.696;23.494;2023-03-15T03:16:22;53658.81;;;-139.68;65.90
10940;BME280;5522;42.696;23.494;2023-03-15T03:18:49;53618.63;;;-139.68;65.40
10940;BME280;5522;42.696;23.494;2023-03-15T03:21:17;53650.78;;;-139.68;63.73
10940;BME280;5522;42.696;23.494;2023-03-15T03:23:44;53598.50;;;-139.68;64.15
10940;BME280;5522;42.696;23.494;2023-03-15T03:26:13;53630.66;;;-139.68;64.16
10940;BME280;5522;42.696;23.494;2023-03-15T03:28:42;53630.66;;;-139.68;63.66
10940;BME280;5522;42.696;23.494;2023-03-15T03:31:15;53606.56;;;-139.68;63.60
10940;BME280;5522;42.696;23.494;2023-03-15T03:33:42;53642.72;;;-139.68;63.35
10940;BME280;5522;42.696;23.494;2023-03-15T03:36:09;53610.56;;;-139.68;64.53
10940;BME280;5522;42.696;23.494;2023-03-15T03:38:39;53622.63;;;-139.68;65.70
10940;BME280;5522;42.696;23.494;2023-03-15T03:41:07;53630.66;;;-139.68;67.51
10940;BME280;5522;42.696;23.494;2023-03-15T03:43:34;53642.72;;;-139.68;70.00
10940;BME280;5522;42.696;23.494;2023-03-15T03:46:01;53630.66;;;-139.68;72.02
10940;BME280;5522;42.696;23.494;2023-03-15T03:48:28;53596.50;;;-139.68;73.09
10940;BME280;5522;42.696;23.494;2023-03-15T03:50:55;53638.72;;;-139.68;74.69
10940;BME280;5522;42.696;23.494;2023-03-15T03:53:22;53646.75;;;-139.68;76.95
10940;BME280;5522;42.696;23.494;2023-03-15T03:55:51;53638.72;;;-139.68;77.53
10940;BME280;5522;42.696;23.494;2023-03-15T03:58:18;53652.78;;;-139.68;78.45
10940;BME280;5522;42.696;23.494;2023-03-15T04:00:45;53626.66;;;-139.68;80.84
10940;BME280;5522;42.696;23.494;2023-03-15T04:03:12;53574.38;;;-139.68;82.75
10940;BME280;5522;42.696;23.494;2023-03-15T04:05:39;53622.63;;;-139.68;84.47
10940;BME280;5522;42.696;23.494;2023-03-15T04:08:06;53674.91;;;-139.68;88.51
10940;BME280;5522;42.696;23.494;2023-03-15T04:10:33;53642.72;;;-139.68;93.76
10940;BME280;5522;42.696;23.494;2023-03-15T04:13:01;53634.69;;;-139.68;95.24
10940;BME280;5522;42.696;23.494;2023-03-15T04:15:28;53660.81;;;-139.68;96.48
10940;BME280;5522;42.696;23.494;2023-03-15T04:17:55;53654.78;;;-139.68;97.19
10940;BME280;5522;42.696;23.494;2023-03-15T04:20:23;53614.59;;;-139.68;97.16
10940;BME280;5522;42.696;23.494;2023-03-15T04:22:50;53620.63;;;-139.68;95.84
10940;BME280;5522;42.696;23.494;2023-03-15T04:25:18;53610.56;;;-139.68;97.53
10940;BME280;5522;42.696;23.494;2023-03-15T04:27:45;53570.38;;;-139.68;100.00
10940;BME280;5522;42.696;23.494;2023-03-15T04:30:24;53606.56;;;-139.68;100.00
10940;BME280;5522;42.696;23.494;2023-03-15T04:32:52;53594.50;;;-139.68;99.15
10940;BME280;5522;42.696;23.494;2023-03-15T04:35:24;53624.63;;;-139.68;99.77
10940;BME280;5522;42.696;23.494;2023-03-15T04:37:52;53638.72;;;-139.68;97.65
10940;BME280;5522;42.696;23.494;2023-03-15T04:40:19;53610.56;;;-139.68;95.27
10940;BME280;5522;42.696;23.494;2023-03-15T04:42:48;53614.59;;;-139.68;94.66
10940;BME280;5522;42.696;23.494;2023-03-15T04:45:15;53618.63;;;-139.68;94.85
10940;BME280;5522;42.696;23.494;2023-03-15T04:47:43;53616.59;;;-139.68;95.45
10940;BME280;5522;42.696;23.494;2023-03-15T04:50:10;53610.56;;;-139.68;96.12
10940;BME280;5522;42.696;23.494;2023-03-15T04:52:37;53644.75;;;-139.68;96.22
10940;BME280;5522;42.696;23.494;2023-03-15T04:55:06;53662.84;;;-139.68;95.57
10940;BME280;5522;42.696;23.494;2023-03-15T04:57:33;53620.63;;;-139.68;95.70
10940;BME280;5522;42.696;23.494;2023-03-15T05:00:00;53614.59;;;-139.68;95.42
10940;BME280;5522;42.696;23.494;2023-03-15T05:02:27;53614.59;;;-139.68;96.12
10940;BME280;5522;42.696;23.494;2023-03-15T05:04:55;53610.56;;;-139.68;96.42
10940;BME280;5522;42.696;23.494;2023-03-15T05:07:22;53580.41;;;-139.68;94.12
10940;BME280;5522;42.696;23.494;2023-03-15T05:09:49;53610.56;;;-139.68;93.41
10940;BME280;5522;42.696;23.494;2023-03-15T05:12:16;53632.69;;;-139.68;92.45
10940;BME280;5522;42.696;23.494;2023-03-15T05:14:43;53632.69;;;-139.68;91.07
10940;BME280;5522;42.696;23.494;2023-03-15T05:17:10;53630.66;;;-139.68;88.01
10940;BME280;5522;42.696;23.494;2023-03-15T05:19:37;53614.59;;;-139.68;83.07
10940;BME280;5522;42.696;23.494;2023-03-15T05:22:05;53632.69;;;-139.68;71.62
10940;BME280;5522;42.696;23.494;2023-03-15T05:24:32;53666.84;;;-139.68;61.43
10940;BME280;5522;42.696;23.494;2023-03-15T05:26:59;53646.75;;;-139.68;55.96
10940;BME280;5522;42.696;23.494;2023-03-15T05:29:26;53674.91;;;-139.68;50.11
10940;BME280;5522;42.696;23.494;2023-03-15T05:31:52;53652.78;;;-139.68;47.68
10940;BME280;5522;42.696;23.494;2023-03-15T05:34:19;53690.97;;;-139.68;47.81
10940;BME280;5522;42.696;23.494;2023-03-15T05:36:48;53648.75;;;-139.68;48.54
10940;BME280;5522;42.696;23.494;2023-03-15T05:39:18;53670.88;;;-139.68;48.91
10940;BME280;5522;42.696;23.494;2023-03-15T05:41:47;53670.88;;;-139.68;51.05
10940;BME280;5522;42.696;23.494;2023-03-15T05:44:14;53634.69;;;-139.68;54.38
10940;BME280;5522;42.696;23.494;2023-03-15T05:46:41;53660.81;;;-139.68;57.41
10940;BME280;5522;42.696;23.494;2023-03-15T05:49:08;53707.06;;;-139.68;60.01
10940;BME280;5522;42.696;23.494;2023-03-15T05:51:35;53624.63;;;-139.68;56.80
10940;BME280;5522;42.696;23.494;2023-03-15T05:54:02;53646.75;;;-139.68;58.05
10940;BME280;5522;42.696;23.494;2023-03-15T05:56:30;53654.78;;;-139.68;58.20
10940;BME280;5522;42.696;23.494;2023-03-15T05:58:57;53656.81;;;-139.68;55.33
10940;BME280;5522;42.696;23.494;2023-03-15T06:01:27;53674.91;;;-139.68;53.19
10940;BME280;5522;42.696;23.494;2023-03-15T06:03:54;53662.84;;;-139.68;53.46
10940;BME280;5522;42.696;23.494;2023-03-15T06:06:20;53634.69;;;-139.68;52.86
10940;BME280;5522;42.696;23.494;2023-03-15T06:08:47;53662.84;;;-139.68;51.90
10940;BME280;5522;42.696;23.494;2023-03-15T06:11:14;53662.84;;;-139.68;52.18
10940;BME280;5522;42.696;23.494;2023-03-15T06:13:42;53662.84;;;-139.68;52.45
10940;BME280;5522;42.696;23.494;2023-03-15T06:16:09;53678.91;;;-139.68;52.90
10940;BME280;5522;42.696;23.494;2023-03-15T06:18:36;53634.69;;;-139.68;52.07
10940;BME280;5522;42.696;23.494;2023-03-15T06:21:03;53662.84;;;-139.68;47.93
10940;BME280;5522;42.696;23.494;2023-03-15T06:23:30;53690.97;;;-139.68;41.95
10940;BME280;5522;42.696;23.494;2023-03-15T06:25:56;53670.88;;;-139.68;38.93
10940;BME280;5522;42.696;23.494;2023-03-15T06:28:23;53703.03;;;-139.68;36.93
10940;BME280;5522;42.696;23.494;2023-03-15T06:30:51;53674.91;;;-139.68;37.12
10940;BME280;5522;42.696;23.494;2023-03-15T06:33:18;53682.94;;;-139.68;36.27
10940;BME280;5522;42.696;23.494;2023-03-15T06:35:46;53678.91;;;-139.68;35.55
10940;BME280;5522;42.696;23.494;2023-03-15T06:38:13;53711.09;;;-139.68;33.91
10940;BME280;5522;42.696;23.494;2023-03-15T06:40:40;53682.94;;;-139.68;34.07
10940;BME280;5522;42.696;23.494;2023-03-15T06:43:06;53719.13;;;-139.68;35.56
10940;BME280;5522;42.696;23.494;2023-03-15T06:45:33;53709.06;;;-139.68;36.62
10940;BME280;5522;42.696;23.494;2023-03-15T06:48:01;53670.88;;;-139.68;36.97
10940;BME280;5522;42.696;23.494;2023-03-15T06:50:28;53731.19;;;-139.68;36.74
10940;BME280;5522;42.696;23.494;2023-03-15T06:52:55;53690.97;;;-139.68;38.52
10940;BME280;5522;42.696;23.494;2023-03-15T06:55:24;53650.78;;;-139.68;39.84
10940;BME280;5522;42.696;23.494;2023-03-15T06:57:50;53682.94;;;-139.68;40.76
10940;BME280;5522;42.696;23.494;2023-03-15T07:00:18;53684.94;;;-139.68;42.26
10940;BME280;5522;42.696;23.494;2023-03-15T07:02:45;53686.97;;;-139.68;41.55
10940;BME280;5522;42.696;23.494;2023-03-15T07:05:13;53678.91;;;-139.68;39.77
10940;BME280;5522;42.696;23.494;2023-03-15T07:07:40;53682.94;;;-139.68;39.16
10940;BME280;5522;42.696;23.494;2023-03-15T07:10:08;53660.81;;;-139.68;37.17
10940;BME280;5522;42.696;23.494;2023-03-15T07:12:35;53725.16;;;-139.68;36.01
10940;BME280;5522;42.696;23.494;2023-03-15T07:15:02;53682.94;;;-139.68;35.10
10940;BME280;5522;42.696;23.494;2023-03-15T07:17:29;53678.91;;;-139.68;33.93
10940;BME280;5522;42.696;23.494;2023-03-15T07:19:55;53699.03;;;-139.68;34.20
10940;BME280;5522;42.696;23.494;2023-03-15T07:22:24;53705.06;;;-139.68;34.15
10940;BME280;5522;42.696;23.494;2023-03-15T07:24:51;53715.09;;;-139.68;33.75
10940;BME280;5522;42.696;23.494;2023-03-15T07:27:18;53727.16;;;-139.68;33.96
10940;BME280;5522;42.696;23.494;2023-03-15T07:29:45;53682.94;;;-139.68;33.76
10940;BME280;5522;42.696;23.494;2023-03-15T07:32:11;53697.00;;;-139.68;33.72
10940;BME280;5522;42.696;23.494;2023-03-15T07:34:38;53686.97;;;-139.68;34.05
10940;BME280;5522;42.696;23.494;2023-03-15T07:37:05;53674.91;;;-139.68;34.69
10940;BME280;5522;42.696;23.494;2023-03-15T07:39:34;53682.94;;;-139.68;34.61
10940;BME280;5522;42.696;23.494;2023-03-15T07:42:00;53688.97;;;-139.68;34.40
10940;BME280;5522;42.696;23.494;2023-03-15T07:44:27;53672.88;;;-139.68;34.80
10940;BME280;5522;42.696;23.494;2023-03-15T07:46:54;53656.81;;;-139.68;33.38
10940;BME280;5522;42.696;23.494;2023-03-15T07:49:21;53709.06;;;-139.68;33.19
10940;BME280;5522;42.696;23.494;2023-03-15T07:51:48;53690.97;;;-139.68;33.55
10940;BME280;5522;42.696;23.494;2023-03-15T07:54:15;53711.09;;;-139.68;31.26
10940;BME280;5522;42.696;23.494;2023-03-15T07:56:43;53703.03;;;-139.68;31.53
10940;BME280;5522;42.696;23.494;2023-03-15T07:59:11;53703.03;;;-139.68;31.71
10940;BME280;5522;42.696;23.494;2023-03-15T08:01:37;53682.94;;;-139.68;33.04
10940;BME280;5522;42.696;23.494;2023-03-15T08:04:04;53715.09;;;-139.68;33.61
10940;BME280;5522;42.696;23.494;2023-03-15T08:06:31;53727.16;;;-139.68;31.58
10940;BME280;5522;42.696;23.494;2023-03-15T08:08:58;53713.09;;;-139.68;31.71
10940;BME280;5522;42.696;23.494;2023-03-15T08:11:28;53723.13;;;-139.68;32.80
10940;BME280;5522;42.696;23.494;2023-03-15T08:13:57;53690.97;;;-139.68;32.50
10940;BME280;5522;42.696;23.494;2023-03-15T08:16:23;53743.25;;;-139.68;32.07
10940;BME280;5522;42.696;23.494;2023-03-15T08:18:50;53727.16;;;-139.68;30.70
10940;BME280;5522;42.696;23.494;2023-03-15T08:21:17;53731.19;;;-139.68;32.02
10940;BME280;5522;42.696;23.494;2023-03-15T08:23:44;53678.91;;;-139.68;32.00
10940;BME280;5522;42.696;23.494;2023-03-15T08:26:11;53709.06;;;-139.68;30.66
10940;BME280;5522;42.696;23.494;2023-03-15T08:28:37;53715.09;;;-139.68;30.54
10940;BME280;5522;42.696;23.494;2023-03-15T08:31:07;53731.19;;;-139.68;29.96
10940;BME280;5522;42.696;23.494;2023-03-15T08:33:34;53723.13;;;-139.68;28.67
10940;BME280;5522;42.696;23.494;2023-03-15T08:36:01;53783.44;;;-139.68;28.44
10940;BME280;5522;42.696;23.494;2023-03-15T08:38:27;53755.31;;;-139.68;28.42
10940;BME280;5522;42.696;23.494;2023-03-15T08:40:55;53729.16;;;-139.68;28.84
10940;BME280;5522;42.696;23.494;2023-03-15T08:43:22;53747.25;;;-139.68;29.62
10940;BME280;5522;42.696;23.494;2023-03-15T08:45:49;53747.25;;;-139.68;29.68
10940;BME280;5522;42.696;23.494;2023-03-15T08:48:18;53733.19;;;-139.68;29.61
10940;BME280;5522;42.696;23.494;2023-03-15T08:50:45;53759.31;;;-139.68;29.97
10940;BME280;5522;42.696;23.494;2023-03-15T08:53:11;53715.09;;;-139.68;29.02
10940;BME280;5522;42.696;23.494;2023-03-15T08:55:38;53739.22;;;-139.68;29.16
10940;BME280;5522;42.696;23.494;2023-03-15T08:58:05;53741.22;;;-139.68;29.75
10940;BME280;5522;42.696;23.494;2023-03-15T09:00:32;53690.97;;;-139.68;30.24
10940;BME280;5522;42.696;23.494;2023-03-15T09:02:59;53711.09;;;-139.68;31.14
10940;BME280;5522;42.696;23.494;2023-03-15T09:05:27;53686.97;;;-139.68;30.79
10940;BME280;5522;42.696;23.494;2023-03-15T09:07:54;53723.13;;;-139.68;30.02
10940;BME280;5522;42.696;23.494;2023-03-15T09:10:20;53779.44;;;-139.68;29.17
10940;BME280;5522;42.696;23.494;2023-03-15T09:12:49;53773.41;;;-139.68;28.55
10940;BME280;5522;42.696;23.494;2023-03-15T09:15:18;53737.22;;;-139.68;29.73
10940;BME280;5522;42.696;23.494;2023-03-15T09:17:47;53735.19;;;-139.68;29.80
10940;BME280;5522;42.696;23.494;2023-03-15T09:20:15;53727.16;;;-139.68;30.38
10940;BME280;5522;42.696;23.494;2023-03-15T09:22:50;53759.31;;;-139.68;30.26
10940;BME280;5522;42.696;23.494;2023-03-15T09:25:17;53737.22;;;-139.68;30.52
10940;BME280;5522;42.696;23.494;2023-03-15T09:27:44;53727.16;;;-139.68;30.27
10940;BME280;5522;42.696;23.494;2023-03-15T09:30:12;53745.25;;;-139.68;31.34
10940;BME280;5522;42.696;23.494;2023-03-15T09:32:39;53733.19;;;-139.68;30.39
10940;BME280;5522;42.696;23.494;2023-03-15T09:35:07;53703.03;;;-139.68;31.58
10940;BME280;5522;42.696;23.494;2023-03-15T09:37:35;53727.16;;;-139.68;31.29
10940;BME280;5522;42.696;23.494;2023-03-15T09:40:05;53715.09;;;-139.68;31.92
10940;BME280;5522;42.696;23.494;2023-03-15T09:42:41;53773.41;;;-139.68;32.13
10940;BME280;5522;42.696;23.494;2023-03-15T09:45:19;53757.31;;;-139.68;31.65
10940;BME280;5522;42.696;23.494;2023-03-15T09:47:56;53739.22;;;-139.68;30.52
10940;BME280;5522;42.696;23.494;2023-03-15T09:50:29;53753.28;;;-139.68;31.36
10940;BME280;5522;42.696;23.494;2023-03-15T09:52:59;53723.13;;;-139.68;30.62
10940;BME280;5522;42.696;23.494;2023-03-15T09:55:29;53715.09;;;-139.68;29.76
10940;BME280;5522;42.696;23.494;2023-03-15T09:57:57;53703.03;;;-139.68;30.59
10940;BME280;5522;42.696;23.494;2023-03-15T10:00:32;53743.25;;;-139.68;30.37
10940;BME280;5522;42.696;23.494;2023-03-15T10:03:02;53749.28;;;-139.68;29.54
10940;BME280;5522;42.696;23.494;2023-03-15T10:05:37;53763.34;;;-139.68;28.57
10940;BME280;5522;42.696;23.494;2023-03-15T10:08:08;53731.19;;;-139.68;29.10
10940;BME280;5522;42.696;23.494;2023-03-15T10:10:42;53713.09;;;-139.68;28.61
10940;BME280;5522;42.696;23.494;2023-03-15T10:13:24;53707.06;;;-139.68;28.96
10940;BME280;5522;42.696;23.494;2023-03-15T10:16:01;53709.06;;;-139.68;30.47
10940;BME280;5522;42.696;23.494;2023-03-15T10:18:42;53715.09;;;-139.68;30.07
10940;BME280;5522;42.696;23.494;2023-03-15T10:21:17;53729.16;;;-139.68;31.08
10940;BME280;5522;42.696;23.494;2023-03-15T10:23:49;53707.06;;;-139.68;31.53
10940;BME280;5522;42.696;23.494;2023-03-15T10:26:22;53709.06;;;-139.68;31.64
10940;BME280;5522;42.696;23.494;2023-03-15T10:28:50;53703.03;;;-139.68;31.26
10940;BME280;5522;42.696;23.494;2023-03-15T10:31:21;53741.22;;;-139.68;32.08
10940;BME280;5522;42.696;23.494;2023-03-15T10:33:49;53741.22;;;-139.68;32.28
10940;BME280;5522;42.696;23.494;2023-03-15T10:36:19;53743.25;;;-139.68;32.16
10940;BME280;5522;42.696;23.494;2023-03-15T10:38:46;53715.09;;;-139.68;32.49
10940;BME280;5522;42.696;23.494;2023-03-15T10:41:28;53731.19;;;-139.68;31.69
10940;BME280;5522;42.696;23.494;2023-03-15T10:43:58;53745.25;;;-139.68;32.56
10940;BME280;5522;42.696;23.494;2023-03-15T10:46:25;53695.00;;;-139.68;33.11
10940;BME280;5522;42.696;23.494;2023-03-15T10:48:56;53735.19;;;-139.68;33.58
10940;BME280;5522;42.696;23.494;2023-03-15T10:51:25;53751.28;;;-139.68;33.87
10940;BME280;5522;42.696;23.494;2023-03-15T10:53:55;53741.22;;;-139.68;33.49
10940;BME280;5522;42.696;23.494;2023-03-15T10:56:24;53703.03;;;-139.68;33.41
10940;BME280;5522;42.696;23.494;2023-03-15T10:58:54;53747.25;;;-139.68;33.29
10940;BME280;5522;42.696;23.494;2023-03-15T11:01:23;53745.25;;;-139.68;32.39
10940;BME280;5522;42.696;23.494;2023-03-15T11:04:01;53697.00;;;-139.68;32.05
10940;BME280;5522;42.696;23.494;2023-03-15T11:06:28;53731.19;;;-139.68;32.00
10940;BME280;5522;42.696;23.494;2023-03-15T11:09:07;53731.19;;;-139.68;31.75
10940;BME280;5522;42.696;23.494;2023-03-15T11:11:51;53739.22;;;-139.68;31.88
10940;BME280;5522;42.696;23.494;2023-03-15T11:14:19;53719.13;;;-139.68;32.22
10940;BME280;5522;42.696;23.494;2023-03-15T11:16:47;53751.28;;;-139.68;32.37
10940;BME280;5522;42.696;23.494;2023-03-15T11:19:16;53747.25;;;-139.68;32.75
10940;BME280;5522;42.696;23.494;2023-03-15T11:21:44;53721.13;;;-139.68;32.78
10940;BME280;5522;42.696;23.494;2023-03-15T11:24:21;53739.22;;;-139.68;32.69
10940;BME280;5522;42.696;23.494;2023-03-15T11:26:51;53745.25;;;-139.68;32.69
10940;BME280;5522;42.696;23.494;2023-03-15T11:29:23;53783.44;;;-139.68;32.80
10940;BME280;5522;42.696;23.494;2023-03-15T11:31:51;53735.19;;;-139.68;32.57
10940;BME280;5522;42.696;23.494;2023-03-15T11:34:25;53747.25;;;-139.68;32.42
10940;BME280;5522;42.696;23.494;2023-03-15T11:36:57;53737.22;;;-139.68;32.52
10940;BME280;5522;42.696;23.494;2023-03-15T11:39:31;53719.13;;;-139.68;32.45
10940;BME280;5522;42.696;23.494;2023-03-15T11:42:04;53703.03;;;-139.68;32.07
10940;BME280;5522;42.696;23.494;2023-03-15T11:44:37;53771.38;;;-139.68;31.98
10940;BME280;5522;42.696;23.494;2023-03-15T11:47:11;53749.28;;;-139.68;32.11
10940;BME280;5522;42.696;23.494;2023-03-15T11:49:43;53767.38;;;-139.68;31.68
10940;BME280;5522;42.696;23.494;2023-03-15T11:52:12;53733.19;;;-139.68;30.96
10940;BME280;5522;42.696;23.494;2023-03-15T11:54:40;53735.19;;;-139.68;30.93
10940;BME280;5522;42.696;23.494;2023-03-15T12:00:25;53741.22;;;-139.68;30.34
10940;BME280;5522;42.696;23.494;2023-03-15T12:03:36;53783.44;;;-139.68;30.22
10940;BME280;5522;42.696;23.494;2023-03-15T12:06:34;53771.38;;;-139.68;31.11
10940;BME280;5522;42.696;23.494;2023-03-15T12:09:46;53731.19;;;-139.68;31.50
10940;BME280;5522;42.696;23.494;2023-03-15T12:12:35;53757.31;;;-139.68;31.04
10940;BME280;5522;42.696;23.494;2023-03-15T12:15:05;53725.16;;;-139.68;32.52
10940;BME280;5522;42.696;23.494;2023-03-15T12:17:44;53733.19;;;-139.68;31.63
10940;BME280;5522;42.696;23.494;2023-03-15T12:20:17;53723.13;;;-139.68;30.76
10940;BME280;5522;42.696;23.494;2023-03-15T12:22:49;53767.38;;;-139.68;31.03
10940;BME280;5522;42.696;23.494;2023-03-15T12:25:19;53727.16;;;-139.68;31.26
10940;BME280;5522;42.696;23.494;2023-03-15T12:27:50;53719.13;;;-139.68;31.74
10940;BME280;5522;42.696;23.494;2023-03-15T12:30:20;53707.06;;;-139.68;32.10
10940;BME280;5522;42.696;23.494;2023-03-15T12:32:52;53737.22;;;-139.68;32.66
10940;BME280;5522;42.696;23.494;2023-03-15T12:35:22;53749.28;;;-139.68;32.16
10940;BME280;5522;42.696;23.494;2023-03-15T12:37:51;53721.13;;;-139.68;31.71
10940;BME280;5522;42.696;23.494;2023-03-15T12:40:39;53743.25;;;-139.68;32.30
10940;BME280;5522;42.696;23.494;2023-03-15T12:43:06;53773.41;;;-139.68;31.90
10940;BME280;5522;42.696;23.494;2023-03-15T12:45:36;53743.25;;;-139.68;31.67
10940;BME280;5522;42.696;23.494;2023-03-15T12:48:27;53725.16;;;-139.68;31.85
10940;BME280;5522;42.696;23.494;2023-03-15T12:51:03;53731.19;;;-139.68;32.07
10940;BME280;5522;42.696;23.494;2023-03-15T12:53:39;53719.13;;;-139.68;32.20
10940;BME280;5522;42.696;23.494;2023-03-15T12:56:28;53743.25;;;-139.68;31.65
10940;BME280;5522;42.696;23.494;2023-03-15T12:59:02;53757.31;;;-139.68;32.05